ADDS METAR Data INFO
IDs: Format: Raw Decoded Include TAF

Data at: 1309 UTC 19 Jul 2018

KRMY 191255Z AUTO 15004KT 10SM CLR 20/14 A3008 RMK AO2 T02000140
KRMY 191235Z AUTO 00000KT 10SM CLR 18/15 A3007 RMK AO2 T01840153
KRMY 191215Z AUTO 00000KT 10SM CLR 17/15 A3007 RMK AO2 T01710151
KRMY 191155Z AUTO 00000KT 10SM CLR 17/15 A3007 RMK AO2 T01650152 10165 20131
KRMY 191135Z AUTO 00000KT 10SM CLR 16/15 A3006 RMK AO2 T01570149
KRMY 191115Z AUTO 00000KT 10SM SCT060 15/14 A3007 RMK AO2 T01470139
KRMY 191055Z AUTO 00000KT 10SM BKN060 14/13 A3006 RMK AO2 T01370129
KRMY 191035Z AUTO 00000KT 10SM OVC060 14/13 A3007 RMK AO2 T01360128
KRMY 191015Z AUTO 00000KT 10SM BKN060 14/13 A3007 RMK AO2 T01350127
KRMY 190955Z AUTO 00000KT 10SM SCT060 13/13 A3007 RMK AO2 T01330125
KRMY 190935Z AUTO 00000KT 10SM BKN060 14/13 A3006 RMK AO2 T01360128
KRMY 190915Z AUTO 00000KT 10SM BKN060 14/13 A3006 RMK AO2 T01370130
KRMY 190855Z AUTO 00000KT 10SM BKN060 14/13 A3006 RMK AO2 T01400132
KRMY 190835Z AUTO 00000KT 10SM BKN060 14/13 A3007 RMK AO2 T01390131
KRMY 190815Z AUTO 00000KT 10SM BKN060 14/13 A3007 RMK AO2 T01400132
KRMY 190755Z AUTO 00000KT 10SM SCT060 15/14 A3006 RMK AO2 T01450137
KRMY 190735Z AUTO 00000KT 10SM CLR 14/14 A3006 RMK AO2 T01430135
KRMY 190715Z AUTO 00000KT 10SM CLR 14/14 A3006 RMK AO2 T01420135
KRMY 190655Z AUTO 00000KT 10SM CLR 14/14 A3006 RMK AO2 T01440136
KRMY 190635Z AUTO 00000KT 10SM CLR 15/14 A3007 RMK AO2 T01470140
KRMY 190615Z AUTO 00000KT 10SM CLR 15/14 A3007 RMK AO2 T01500141
KRMY 190555Z AUTO 00000KT 10SM CLR 15/14 A3006 RMK AO2 T01480140 10250 20145 402630130
KRMY 190535Z AUTO 00000KT 10SM CLR 15/14 A3006 RMK AO2 T01490141
KRMY 190515Z AUTO 00000KT 10SM CLR 15/15 A3006 RMK AO2 T01530145
KRMY 190455Z AUTO 00000KT 10SM CLR 16/15 A3006 RMK AO2 T01550147
KRMY 190435Z AUTO 00000KT 10SM CLR 16/15 A3006 RMK AO2 T01610151
KRMY 190415Z AUTO 00000KT 10SM CLR 16/15 A3006 RMK AO2 T01610151
KRMY 190355Z AUTO 00000KT 10SM CLR 16/16 A3007 RMK AO2 T01630155
KRMY 190335Z AUTO 00000KT 10SM CLR 16/15 A3007 RMK AO2 T01560147
KRMY 190315Z AUTO 00000KT 10SM CLR 17/13 A3006 RMK AO2 T01690129
KRMY 190255Z AUTO 00000KT 10SM CLR 17/13 A3006 RMK AO2 T01730133
KRMY 190235Z AUTO 00000KT 10SM CLR 18/13 A3006 RMK AO2 T01790125
KRMY 190215Z AUTO 00000KT 10SM CLR 19/12 A3006 RMK AO2 T01900119
KRMY 190155Z AUTO 00000KT 10SM CLR 20/14 A3006 RMK AO2 T01980135
KRMY 190135Z AUTO 00000KT 10SM CLR 20/12 A3005 RMK AO2 T02040115
KRMY 190115Z AUTO 00000KT 10SM CLR 21/12 A3005 RMK AO2 T02140116
KRMY 190055Z AUTO 00000KT 10SM CLR 22/11 A3005 RMK AO2 T02240114
KRMY 190035Z AUTO 00000KT 10SM SCT060 24/11 A3005 RMK AO2 T02360110
KRMY 190015Z AUTO 00000KT 10SM OVC060 24/11 A3005 RMK AO2 T02410114
KRMY 182355Z AUTO 00000KT 10SM BKN060 25/10 A3005 RMK AO2 T02530099 10263 20241
KRMY 182335Z AUTO 00000KT 10SM SCT060 26/10 A3005 RMK AO2 T02600101
KRMY 182315Z AUTO 00000KT 10SM SCT060 25/10 A3005 RMK AO2 T02540103
KRMY 182255Z AUTO 00000KT 10SM SCT060 26/11 A3005 RMK AO2 T02560105
KRMY 182235Z AUTO 00000KT 10SM CLR 26/11 A3005 RMK AO2 T02550106
KRMY 182215Z AUTO 00000KT 10SM SCT060 26/10 A3005 RMK AO2 T02570097
KRMY 182155Z AUTO 00000KT 10SM BKN060 26/09 A3006 RMK AO2 T02550090
KRMY 182135Z AUTO 00000KT 10SM SCT060 26/10 A3006 RMK AO2 T02560096
KRMY 182115Z AUTO 00000KT 10SM SCT060 25/10 A3006 RMK AO2 T02500095
KRMY 182055Z AUTO 18004KT 10SM BKN060 26/09 A3007 RMK AO2 T02590094
KRMY 182035Z AUTO 00000KT 10SM BKN060 26/09 A3008 RMK AO2 T02580093
KRMY 182015Z AUTO 00000KT 10SM SCT050 25/10 A3008 RMK AO2 T02540095
KRMY 181955Z AUTO 00000KT 10SM SCT050 24/10 A3009 RMK AO2 T02410095
KRMY 181935Z AUTO 08004KT 10SM SCT050 25/10 A3009 RMK AO2 T02530098
KRMY 181915Z AUTO 00000KT 10SM BKN050 25/10 A3009 RMK AO2 T02510104
KRMY 181855Z AUTO 00000KT 10SM BKN050 25/10 A3010 RMK AO2 T02490099
KRMY 181835Z AUTO 00000KT 10SM BKN050 25/10 A3010 RMK AO2 T02480099
KRMY 181815Z AUTO 10003KT 10SM CLR 24/09 A3010 RMK AO2 T02440092
KRMY 181755Z AUTO 01003KT 10SM SCT047 24/09 A3011 RMK AO2 T02410092 10245 20150
KRMY 181735Z AUTO 11005KT 10SM SCT047 24/10 A3011 RMK AO2 T02420096
KRMY 181715Z AUTO 06003KT 10SM BKN043 24/10 A3011 RMK AO2 T02380103
KRMY 181655Z AUTO 00000KT 10SM BKN043 23/10 A3011 RMK AO2 T02340101
KRMY 181635Z AUTO 29004KT 10SM BKN041 24/11 A3012 RMK AO2 T02350111
KRMY 181615Z AUTO 32003KT 10SM SCT037 SCT043 24/11 A3013 RMK AO2 T02410110
KRMY 181555Z AUTO 00000KT 10SM BKN037 BKN043 22/12 A3013 RMK AO2 T02210117
KRMY 181535Z AUTO 27003KT 10SM SCT033 23/12 A3013 RMK AO2 T02290116
KRMY 181515Z AUTO 00000KT 10SM CLR 22/12 A3013 RMK AO2 T02150122
KRMY 181455Z AUTO 00000KT 10SM CLR 21/12 A3013 RMK AO2 T02110121
KRMY 181435Z AUTO 00000KT 10SM CLR 20/13 A3013 RMK AO2 T02040129
KRMY 181415Z AUTO 14003KT 10SM CLR 20/13 A3014 RMK AO2 T02010131
KRMY 181355Z AUTO 00000KT 10SM CLR 19/13 A3014 RMK AO2 T01910133
KRMY 181335Z AUTO 00000KT 10SM CLR 18/14 A3014 RMK AO2 T01830137
KRMY 181315Z AUTO 00000KT 10SM CLR 18/14 A3014 RMK AO2 T01750137
KRMY 181255Z AUTO 00000KT 10SM CLR 17/14 A3014 RMK AO2 T01670135
KRMY 181235Z AUTO 00000KT 10SM CLR 16/14 A3014 RMK AO2 T01630138
KRMY 181215Z AUTO 00000KT 10SM CLR 15/13 A3014 RMK AO2 T01530132
KRMY 181155Z AUTO 00000KT 10SM CLR 15/13 A3014 RMK AO2 T01470132 10170 20130
KRMY 181135Z AUTO 00000KT 10SM CLR 14/14 A3013 RMK AO2 T01430135
KRMY 181115Z AUTO 00000KT 10SM CLR 14/13 A3013 RMK AO2 T01350127
KRMY 181055Z AUTO 00000KT 10SM CLR 13/12 A3012 RMK AO2 T01310123
KRMY 181035Z AUTO 00000KT 10SM CLR 13/12 A3012 RMK AO2 T01310124
KRMY 181015Z AUTO 02003KT 10SM CLR 13/12 A3011 RMK AO2 T01310124
KRMY 180955Z AUTO 00000KT 10SM CLR 14/13 A3011 RMK AO2 T01350126
KRMY 180935Z AUTO 00000KT 10SM CLR 13/13 A3011 RMK AO2 T01330125
KRMY 180915Z AUTO 00000KT 10SM CLR 14/13 A3011 RMK AO2 T01360127
KRMY 180855Z AUTO 00000KT 10SM CLR 14/13 A3011 RMK AO2 T01400130
KRMY 180835Z AUTO 00000KT 10SM CLR 14/13 A3011 RMK AO2 T01430126
KRMY 180815Z AUTO 00000KT 10SM CLR 15/13 A3011 RMK AO2 T01450125
KRMY 180755Z AUTO 00000KT 10SM CLR 15/12 A3011 RMK AO2 T01480122
KRMY 180735Z AUTO 00000KT 10SM CLR 15/12 A3011 RMK AO2 T01490121
KRMY 180715Z AUTO 00000KT 10SM CLR 16/12 A3011 RMK AO2 T01550120
KRMY 180655Z AUTO 00000KT 10SM CLR 16/12 A3010 RMK AO2 T01580120
KRMY 180635Z AUTO 00000KT 10SM CLR 16/12 A3010 RMK AO2 T01590122
KRMY 180615Z AUTO 00000KT 10SM CLR 16/12 A3010 RMK AO2 T01630120
KRMY 180555Z AUTO 01003KT 10SM CLR 17/11 A3010 RMK AO2 T01710112 10245 20163 402740150
KRMY 180535Z AUTO 00000KT 10SM CLR 17/12 A3009 RMK AO2 T01730115
KRMY 180515Z AUTO 02003KT 10SM CLR 18/12 A3009 RMK AO2 T01760116
KRMY 180455Z AUTO 00000KT 10SM CLR 18/12 A3009 RMK AO2 T01750116
KRMY 180435Z AUTO 00000KT 10SM CLR 17/12 A3009 RMK AO2 T01710117
KRMY 180415Z AUTO 00000KT 10SM CLR 16/12 A3009 RMK AO2 T01640121
KRMY 180355Z AUTO 00000KT 10SM CLR 17/12 A3008 RMK AO2 T01740117
KRMY 180335Z AUTO 00000KT 10SM CLR 17/12 A3007 RMK AO2 T01740120
KRMY 180315Z AUTO 00000KT 10SM CLR 17/13 A3007 RMK AO2 T01700129
KRMY 180255Z AUTO 00000KT 10SM CLR 18/13 A3006 RMK AO2 T01790126
KRMY 180235Z AUTO 00000KT 10SM CLR 19/13 A3006 RMK AO2 T01850125
KRMY 180215Z AUTO 00000KT 10SM CLR 18/13 A3006 RMK AO2 T01810125
KRMY 180155Z AUTO 00000KT 10SM CLR 20/12 A3005 RMK AO2 T01990117
KRMY 180135Z AUTO 00000KT 10SM CLR 21/11 A3004 RMK AO2 T02080114
KRMY 180115Z AUTO 29003KT 10SM CLR 21/11 A3003 RMK AO2 T02140110